createdAt,value
2022-11-18T00:00:51.716Z,62.5
2022-11-18T00:03:39.088Z,61.8
2022-11-18T00:06:27.167Z,62.2
2022-11-18T00:09:16.521Z,61.3
2022-11-18T00:12:03.925Z,61.6
2022-11-18T00:15:26.345Z,61.5
2022-11-18T00:18:16.191Z,61.1
2022-11-18T00:21:03.560Z,61
2022-11-18T00:23:53.334Z,61.4
2022-11-18T00:26:40.606Z,61.6
2022-11-18T00:29:27.964Z,61.6
2022-11-18T00:32:16.267Z,61.2
2022-11-18T00:35:03.553Z,61.5
2022-11-18T00:37:52.132Z,61.7
2022-11-18T00:40:39.441Z,62.4
2022-11-18T00:43:26.985Z,61.3
2022-11-18T00:46:14.507Z,60.6
2022-11-18T00:49:01.836Z,60.9
2022-11-18T00:51:49.778Z,60.5
2022-11-18T00:54:37.757Z,60.7
2022-11-18T00:57:25.080Z,60.3
2022-11-18T01:00:12.514Z,60.5
2022-11-18T01:03:00.168Z,60.2
2022-11-18T01:05:48.121Z,60.8
2022-11-18T01:08:36.613Z,60.3
2022-11-18T01:11:24.334Z,60.8
2022-11-18T01:14:43.876Z,60.1
2022-11-18T01:17:31.269Z,60.6
2022-11-18T01:20:18.585Z,61.1
2022-11-18T01:23:05.883Z,60.5
2022-11-18T01:25:53.362Z,60.9
2022-11-18T01:28:41.105Z,60.8
2022-11-18T01:31:29.205Z,61.2
2022-11-18T01:34:16.487Z,61.2
2022-11-18T01:37:03.866Z,61
2022-11-18T01:39:51.135Z,60.9
2022-11-18T01:42:38.368Z,61.1
2022-11-18T01:45:25.640Z,60.6
2022-11-18T01:48:18.770Z,59.8
2022-11-18T01:51:09.971Z,60
2022-11-18T01:54:01.072Z,60.1
2022-11-18T01:56:53.506Z,60.2
2022-11-18T01:59:46.666Z,60.2
2022-11-18T02:02:39.394Z,60
2022-11-18T02:05:27.238Z,60.6
2022-11-18T02:08:16.022Z,60.4
2022-11-18T02:11:04.741Z,60
2022-11-18T02:14:35.573Z,60.3
2022-11-18T02:17:28.929Z,60
2022-11-18T02:20:29.919Z,60.2
2022-11-18T02:23:19.619Z,60.6
2022-11-18T02:26:46.958Z,61.6
2022-11-18T02:29:48.734Z,61.5
2022-11-18T02:32:43.656Z,61.5
2022-11-18T02:35:38.855Z,61.3
2022-11-18T02:38:29.275Z,61.4
2022-11-18T02:41:22.508Z,61
2022-11-18T02:44:13.179Z,61.6
2022-11-18T02:47:02.004Z,61.9
2022-11-18T02:49:54.783Z,62.1
2022-11-18T02:52:48.631Z,63.3
2022-11-18T02:55:41.310Z,62.1
2022-11-18T02:58:31.032Z,63
2022-11-18T03:01:18.537Z,62.6
2022-11-18T03:04:11.783Z,62.3
2022-11-18T03:07:01.779Z,62.4
2022-11-18T03:09:56.750Z,63.4
2022-11-18T03:12:46.111Z,63.3
2022-11-18T03:15:40.811Z,63.3
2022-11-18T03:18:36.812Z,62.4
2022-11-18T03:21:33.479Z,63.9
2022-11-18T03:24:26.096Z,63.8
2022-11-18T03:27:17.826Z,63.2
2022-11-18T03:30:11.250Z,63.8
2022-11-18T03:33:03.602Z,64.1
2022-11-18T03:35:56.142Z,65.6
2022-11-18T03:38:46.351Z,64.9
2022-11-18T03:41:39.325Z,64.9
2022-11-18T03:44:34.036Z,64.6
2022-11-18T03:47:24.895Z,65
2022-11-18T03:50:17.541Z,65
2022-11-18T03:53:08.699Z,65.4
2022-11-18T03:55:57.291Z,65.8
2022-11-18T03:58:50.764Z,65.7
2022-11-18T04:01:43.781Z,65.3
2022-11-18T04:04:37.118Z,65.2
2022-11-18T04:07:25.460Z,65.7
2022-11-18T04:10:18.268Z,65.5
2022-11-18T04:13:08.550Z,66
2022-11-18T04:16:01.462Z,65.4
2022-11-18T04:18:49.286Z,65
2022-11-18T04:21:37.273Z,65.9
2022-11-18T04:24:24.587Z,66.6
2022-11-18T04:27:11.975Z,65.7
2022-11-18T04:29:59.583Z,66.6
2022-11-18T04:32:48.078Z,66.5
2022-11-18T04:35:36.374Z,65.1
2022-11-18T04:38:23.770Z,65.2
2022-11-18T04:41:11.085Z,65
2022-11-18T04:43:58.604Z,65.3
2022-11-18T04:46:57.399Z,65.3
2022-11-18T04:49:47.574Z,65.6
2022-11-18T04:52:35.830Z,65
2022-11-18T04:55:23.218Z,64.8
2022-11-18T04:58:11.863Z,65.8
2022-11-18T05:00:59.189Z,64.8
2022-11-18T05:03:50.551Z,65.1
2022-11-18T05:06:38.207Z,65.2
2022-11-18T05:09:30.433Z,65.8
2022-11-18T05:12:19.340Z,65.4
2022-11-18T05:15:38.182Z,64.5
2022-11-18T05:18:25.844Z,63.1
2022-11-18T05:21:13.144Z,63
2022-11-18T05:24:00.534Z,63.1
2022-11-18T05:26:48.840Z,63.5
2022-11-18T05:29:37.419Z,63.8
2022-11-18T05:32:24.713Z,64.2
2022-11-18T05:35:12.032Z,64.4
2022-11-18T05:37:59.369Z,64.7
2022-11-18T05:40:47.163Z,65.1
2022-11-18T05:43:35.711Z,65.1
2022-11-18T05:46:23.073Z,65
2022-11-18T05:49:10.828Z,64.6
2022-11-18T05:51:58.257Z,65.6
2022-11-18T05:54:45.705Z,65.4
2022-11-18T05:57:36.009Z,65.9
2022-11-18T06:00:23.390Z,66.1
2022-11-18T06:03:10.723Z,65.9
2022-11-18T06:06:02.794Z,66.3
2022-11-18T06:08:52.515Z,66.3
2022-11-18T06:11:43.020Z,65.5
2022-11-18T06:14:35.131Z,65.5
2022-11-18T06:17:26.559Z,65.3
2022-11-18T06:20:17.098Z,65.2
2022-11-18T06:23:05.906Z,65.5
2022-11-18T06:25:53.497Z,65.1
2022-11-18T06:28:40.862Z,65.4
2022-11-18T06:31:31.568Z,64.9
2022-11-18T06:34:26.234Z,65.1
2022-11-18T06:37:13.519Z,65.1
2022-11-18T06:40:02.804Z,65.4
2022-11-18T06:42:52.021Z,65
2022-11-18T06:46:11.091Z,64.4
2022-11-18T06:49:32.194Z,64
2022-11-18T06:52:19.678Z,63.4
2022-11-18T06:55:07.298Z,63.2
2022-11-18T06:57:54.849Z,63.2
2022-11-18T07:00:42.357Z,63.2
2022-11-18T07:03:29.647Z,63.1
2022-11-18T07:06:16.979Z,63.3
2022-11-18T07:09:06.427Z,62.9
2022-11-18T07:11:53.779Z,62.6
2022-11-18T07:14:41.359Z,63.6
2022-11-18T07:17:28.522Z,62.9
2022-11-18T07:20:15.930Z,63.5
2022-11-18T07:23:03.517Z,63.7
2022-11-18T07:25:50.796Z,63.3
2022-11-18T07:28:39.949Z,63.1
2022-11-18T07:31:27.954Z,63.1
2022-11-18T07:34:16.118Z,62.5
2022-11-18T07:37:03.426Z,62.9
2022-11-18T07:39:50.653Z,63
2022-11-18T07:42:37.981Z,62.9
2022-11-18T07:45:27.297Z,63.2
2022-11-18T07:48:14.606Z,63.2
2022-11-18T07:51:01.925Z,63.3
2022-11-18T07:53:49.651Z,62.6
2022-11-18T07:56:37.906Z,61.7
2022-11-18T07:59:25.642Z,61.6
2022-11-18T08:02:12.986Z,61.9
2022-11-18T08:05:00.488Z,60.9
2022-11-18T08:07:48.373Z,60.8
2022-11-18T08:10:36.686Z,61.2
2022-11-18T08:13:24.097Z,60.5
2022-11-18T08:16:12.347Z,60.2
2022-11-18T08:19:02.140Z,59.7
2022-11-18T08:21:49.658Z,59.7
2022-11-18T08:24:38.574Z,60.4
2022-11-18T08:27:25.863Z,62.7
2022-11-18T08:30:13.244Z,60.4
2022-11-18T08:33:00.679Z,57.8
2022-11-18T08:35:49.640Z,58.6
2022-11-18T08:38:37.459Z,61
2022-11-18T08:41:25.164Z,61.2
2022-11-18T08:44:16.621Z,61.9
2022-11-18T08:47:03.875Z,62.6
2022-11-18T08:49:51.138Z,61
2022-11-18T08:52:38.386Z,61.1
2022-11-18T08:55:25.731Z,60.5
2022-11-18T08:58:13.097Z,59.2
2022-11-18T09:01:00.434Z,59.4
2022-11-18T09:03:50.581Z,61
2022-11-18T09:06:38.091Z,62.2
2022-11-18T09:09:25.555Z,61.5
2022-11-18T09:12:12.895Z,61.2
2022-11-18T09:15:15.045Z,59.5
2022-11-18T09:18:02.856Z,59.1
2022-11-18T09:20:50.532Z,60.3
2022-11-18T09:23:40.324Z,60.7
2022-11-18T09:26:27.919Z,61.5
2022-11-18T09:29:15.567Z,63.8
2022-11-18T09:32:02.967Z,63
2022-11-18T09:34:50.501Z,61.7
2022-11-18T09:37:37.958Z,59.2
2022-11-18T09:40:25.322Z,58.6
2022-11-18T09:43:13.185Z,61.1
2022-11-18T09:46:10.209Z,60.6
2022-11-18T09:49:07.398Z,61.2
2022-11-18T09:52:12.368Z,61.2
2022-11-18T09:55:04.780Z,59.6
2022-11-18T09:57:58.004Z,58
2022-11-18T10:00:45.912Z,57.7
2022-11-18T10:03:33.828Z,58.5
2022-11-18T10:06:24.023Z,59.2
2022-11-18T10:09:14.108Z,62.4
2022-11-18T10:12:11.814Z,60.7
2022-11-18T10:15:08.919Z,58.7
2022-11-18T10:18:06.127Z,58.9
2022-11-18T10:21:06.432Z,59.7
2022-11-18T10:24:05.490Z,60.6
2022-11-18T10:27:02.364Z,61.4
2022-11-18T10:29:56.607Z,60.4
2022-11-18T10:32:45.761Z,58.3
2022-11-18T10:35:43.295Z,56.2
2022-11-18T10:38:31.050Z,58
2022-11-18T10:41:18.370Z,57.5
2022-11-18T10:44:11.913Z,58
2022-11-18T10:47:16.278Z,58.5
2022-11-18T10:50:14.362Z,60
2022-11-18T10:53:15.567Z,61.2
2022-11-18T10:56:21.579Z,62.6
2022-11-18T10:59:09.658Z,60.5
2022-11-18T11:02:09.801Z,58
2022-11-18T11:05:03.320Z,58.1
2022-11-18T11:08:34.488Z,58
2022-11-18T11:11:32.814Z,61
2022-11-18T11:14:23.126Z,60
2022-11-18T11:17:15.496Z,61.7
2022-11-18T11:20:07.590Z,62.6
2022-11-18T11:23:03.287Z,61.1
2022-11-18T11:29:20.581Z,58.3
2022-11-18T11:32:20.657Z,58.8
2022-11-18T11:35:17.445Z,58.3
2022-11-18T11:38:10.024Z,59.5
2022-11-18T11:41:06.017Z,59.1
2022-11-18T11:44:06.818Z,58
2022-11-18T11:47:08.550Z,57
2022-11-18T11:50:43.140Z,57
2022-11-18T11:53:40.402Z,60.6
2022-11-18T11:56:49.160Z,57.6
2022-11-18T11:59:42.262Z,58.5
2022-11-18T12:02:35.057Z,57.1
2022-11-18T12:05:46.222Z,57
2022-11-18T12:08:34.138Z,59.9
2022-11-18T12:11:24.686Z,57.7
2022-11-18T12:14:20.333Z,57.1
2022-11-18T12:17:16.858Z,59.6
2022-11-18T12:20:10.604Z,58.9
2022-11-18T12:23:25.814Z,58.5
2022-11-18T12:26:14.825Z,58.5
2022-11-18T12:29:19.890Z,58.8
2022-11-18T12:32:10.919Z,59.3
2022-11-18T12:35:13.434Z,58.1
2022-11-18T12:38:12.620Z,58.5
2022-11-18T12:41:14.926Z,59.6
2022-11-18T12:45:09.133Z,59.9
2022-11-18T12:48:34.608Z,60.2
2022-11-18T12:51:25.150Z,60.2
2022-11-18T12:54:26.937Z,61
2022-11-18T12:57:19.956Z,61.9
2022-11-18T13:00:09.854Z,61.5
2022-11-18T13:03:15.887Z,61.9
2022-11-18T13:06:13.795Z,59.5
2022-11-18T13:09:09.674Z,58.4
2022-11-18T13:12:02.142Z,57.8
2022-11-18T13:14:53.311Z,58.6
2022-11-18T13:18:13.152Z,58.8
2022-11-18T13:21:02.867Z,59.3
2022-11-18T13:26:36.211Z,59.5
2022-11-18T13:29:27.043Z,59.8
2022-11-18T13:32:23.696Z,58.5
2022-11-18T13:35:12.986Z,59.3
2022-11-18T13:38:03.974Z,58.4
2022-11-18T13:40:54.622Z,60.3
2022-11-18T13:43:53.834Z,60.8
2022-11-18T13:46:41.599Z,59.8
2022-11-18T13:49:32.819Z,61.1
2022-11-18T13:52:32.050Z,60.2
2022-11-18T13:55:25.576Z,60.8
2022-11-18T13:58:16.149Z,60.5
2022-11-18T14:01:23.794Z,61.2
2022-11-18T14:04:13.472Z,60.8
2022-11-18T14:07:05.444Z,60
2022-11-18T14:10:11.855Z,61.1
2022-11-18T14:13:01.130Z,61.7
2022-11-18T14:16:01.155Z,61.8
2022-11-18T14:19:15.008Z,61.6
2022-11-18T14:22:15.396Z,62.3
2022-11-18T14:25:04.971Z,62.6
2022-11-18T14:28:03.874Z,62.3
2022-11-18T14:30:58.590Z,61.1
2022-11-18T14:33:49.356Z,59.6
2022-11-18T14:37:10.454Z,57.2
2022-11-18T14:39:59.673Z,59.5
2022-11-18T14:42:47.145Z,59.4
2022-11-18T14:45:35.607Z,59.7
2022-11-18T14:48:26.076Z,60.2
2022-11-18T14:51:17.410Z,60.2
2022-11-18T14:54:04.810Z,60.9
2022-11-18T14:56:52.153Z,61.1
2022-11-18T14:59:42.449Z,62.2
2022-11-18T15:02:29.934Z,62.5
2022-11-18T15:05:17.236Z,62.1
2022-11-18T15:08:04.521Z,61.4
2022-11-18T15:10:52.081Z,60.4
2022-11-18T15:13:39.385Z,59.4
2022-11-18T15:16:27.382Z,60.2
2022-11-18T15:19:17.094Z,60.8
2022-11-18T15:22:04.343Z,63.3
2022-11-18T15:24:51.661Z,62.4
2022-11-18T15:27:39.018Z,61.4
2022-11-18T15:30:26.641Z,60.5
2022-11-18T15:33:14.042Z,59.7
2022-11-18T15:36:01.422Z,58.7
2022-11-18T15:38:49.264Z,58.4
2022-11-18T15:41:38.751Z,59.2
2022-11-18T15:44:27.553Z,59.7
2022-11-18T15:47:14.846Z,61.3
2022-11-18T15:50:03.353Z,61.1
2022-11-18T15:52:52.088Z,61.7
2022-11-18T15:55:40.397Z,64.2
2022-11-18T15:58:33.022Z,66.9
2022-11-18T16:01:23.295Z,63.8
2022-11-18T16:04:12.331Z,62.6
2022-11-18T16:07:02.050Z,61.1
2022-11-18T16:09:49.619Z,58.9
2022-11-18T16:13:09.142Z,57.3
2022-11-18T16:15:56.555Z,58.2
2022-11-18T16:18:43.826Z,59.5
2022-11-18T16:21:31.142Z,59.7
2022-11-18T16:24:21.174Z,61.7
2022-11-18T16:27:11.349Z,61
2022-11-18T16:29:58.631Z,62
2022-11-18T16:32:48.894Z,62.8
2022-11-18T16:35:37.468Z,61.9
2022-11-18T16:38:31.814Z,59.9
2022-11-18T16:41:19.217Z,59.4
2022-11-18T16:44:22.272Z,59.6
2022-11-18T16:47:14.695Z,61.2
2022-11-18T16:50:02.857Z,61.7
2022-11-18T16:52:51.872Z,62.2
2022-11-18T16:55:39.043Z,63.1
2022-11-18T16:58:26.939Z,62.3
2022-11-18T17:01:20.903Z,61.7
2022-11-18T17:04:09.632Z,59.9
2022-11-18T17:06:57.063Z,59.2
2022-11-18T17:09:44.561Z,60.2
2022-11-18T17:12:31.811Z,60.5
2022-11-18T17:15:19.119Z,61.2
2022-11-18T17:18:06.357Z,61.9
2022-11-18T17:20:53.707Z,62
2022-11-18T17:23:41.024Z,63.5
2022-11-18T17:26:29.902Z,63.3
2022-11-18T17:29:17.571Z,61.2
2022-11-18T17:32:05.274Z,60.4
2022-11-18T17:34:52.565Z,59.5
2022-11-18T17:37:39.935Z,58.8
2022-11-18T17:40:27.203Z,59.6
2022-11-18T17:43:14.580Z,60.4
2022-11-18T17:46:01.833Z,61.5
2022-11-18T17:48:49.573Z,62.4
2022-11-18T17:51:40.279Z,62.9
2022-11-18T17:54:28.587Z,62.5
2022-11-18T17:57:15.889Z,61.5
2022-11-18T18:00:04.161Z,60.6
2022-11-18T18:02:54.073Z,59.6
2022-11-18T18:05:41.724Z,59.1
2022-11-18T18:08:29.105Z,59.7
2022-11-18T18:11:16.857Z,61.1
2022-11-18T18:14:04.628Z,61.4
2022-11-18T18:17:00.801Z,62.4
2022-11-18T18:19:50.411Z,63.4
2022-11-18T18:22:38.535Z,63
2022-11-18T18:25:26.344Z,61.9
2022-11-18T18:28:13.656Z,60.8
2022-11-18T18:31:00.976Z,59.3
2022-11-18T18:33:50.561Z,59.2
2022-11-18T18:36:38.067Z,60.1
2022-11-18T18:39:25.429Z,61.2
2022-11-18T18:42:12.964Z,61.6
2022-11-18T18:45:00.309Z,62.6
2022-11-18T18:48:19.208Z,63.2
2022-11-18T18:51:06.455Z,62.4
2022-11-18T18:53:53.795Z,61.6
2022-11-18T18:56:41.732Z,61.4
2022-11-18T18:59:30.363Z,60.3
2022-11-18T19:02:18.066Z,59.8
2022-11-18T19:05:05.583Z,59.6
2022-11-18T19:07:53.476Z,60
2022-11-18T19:10:40.856Z,61.4
2022-11-18T19:13:28.279Z,61.9
2022-11-18T19:16:15.543Z,63.7
2022-11-18T19:19:02.797Z,63.5
2022-11-18T19:21:51.082Z,62.6
2022-11-18T19:24:48.717Z,61.4
2022-11-18T19:27:37.865Z,60.8
2022-11-18T19:30:25.641Z,60.2
2022-11-18T19:33:13.451Z,60.1
2022-11-18T19:36:00.763Z,59
2022-11-18T19:38:48.621Z,60.7
2022-11-18T19:41:37.308Z,61.1
2022-11-18T19:44:24.894Z,61.8
2022-11-18T19:47:12.274Z,63.3
2022-11-18T19:49:59.490Z,64.3
2022-11-18T19:52:46.754Z,63.2
2022-11-18T19:55:34.632Z,62.5
2022-11-18T19:58:22.519Z,61.8
2022-11-18T20:01:10.925Z,61.8
2022-11-18T20:04:01.061Z,62.3
2022-11-18T20:06:50.349Z,61.7
2022-11-18T20:09:38.551Z,59.8
2022-11-18T20:12:25.801Z,59.8
2022-11-18T20:15:14.079Z,59.3
2022-11-18T20:18:01.617Z,60.8
2022-11-18T20:20:49.411Z,61.2
2022-11-18T20:23:37.691Z,62.9
2022-11-18T20:26:25.483Z,63.1
2022-11-18T20:29:14.332Z,62.2
2022-11-18T20:32:01.717Z,62.8
2022-11-18T20:34:49.446Z,60.5
2022-11-18T20:37:37.944Z,59.8
2022-11-18T20:40:27.096Z,59.3
2022-11-18T20:43:15.664Z,59.1
2022-11-18T20:46:02.990Z,60.4
2022-11-18T20:48:52.146Z,61.8
2022-11-18T20:51:40.554Z,63.1
2022-11-18T20:54:27.996Z,63.3
2022-11-18T20:57:15.276Z,62.5
2022-11-18T21:00:03.183Z,61.5
2022-11-18T21:02:52.752Z,61.5
2022-11-18T21:05:40.883Z,60.6
2022-11-18T21:08:28.246Z,60
2022-11-18T21:11:15.581Z,59.7
2022-11-18T21:14:02.854Z,59.2
2022-11-18T21:17:07.745Z,60.4
2022-11-18T21:19:55.173Z,61.6
2022-11-18T21:24:28.937Z,63.3
2022-11-18T21:27:18.788Z,64.1
2022-11-18T21:30:06.101Z,63.8
2022-11-18T21:32:54.382Z,63
2022-11-18T21:35:41.748Z,62.3
2022-11-18T21:38:29.049Z,61.5
2022-11-18T21:41:16.802Z,61
2022-11-18T21:44:06.251Z,60.5
2022-11-18T21:46:56.130Z,60.1
2022-11-18T21:49:43.451Z,59.8
2022-11-18T21:52:30.634Z,59.5
2022-11-18T21:55:17.941Z,59.4
2022-11-18T21:58:06.222Z,60.6
2022-11-18T22:00:53.537Z,62.4
2022-11-18T22:03:55.281Z,63.1
2022-11-18T22:06:45.607Z,63.3
2022-11-18T22:09:36.431Z,62.9
2022-11-18T22:12:24.330Z,62.2
2022-11-18T22:15:11.641Z,61.9
2022-11-18T22:17:59.044Z,61.6
2022-11-18T22:20:46.379Z,61.1
2022-11-18T22:23:33.692Z,60.8
2022-11-18T22:26:21.423Z,60.6
2022-11-18T22:29:08.716Z,60.4
2022-11-18T22:31:56.133Z,60.3
2022-11-18T22:34:45.918Z,60.4
2022-11-18T22:37:37.586Z,60.6
2022-11-18T22:40:24.855Z,61.4
2022-11-18T22:43:12.142Z,60.7
2022-11-18T22:45:59.470Z,61.8
2022-11-18T22:48:48.714Z,60.6
2022-11-18T22:51:37.034Z,60.8
2022-11-18T22:54:39.780Z,60.7
2022-11-18T22:57:27.658Z,60.3
2022-11-18T23:00:19.075Z,60.1
2022-11-18T23:03:06.468Z,61
2022-11-18T23:05:54.118Z,60.8
2022-11-18T23:08:42.039Z,61.1
2022-11-18T23:11:29.360Z,60.5
2022-11-18T23:14:48.584Z,59.2
2022-11-18T23:17:37.039Z,60.7
2022-11-18T23:20:24.479Z,63.2
2022-11-18T23:23:11.827Z,64.1
2022-11-18T23:25:59.141Z,65.4
2022-11-18T23:28:51.363Z,63.4
2022-11-18T23:31:38.881Z,62.3
2022-11-18T23:34:28.164Z,62.8
2022-11-18T23:37:15.670Z,61.5
2022-11-18T23:40:03.310Z,61.4
2022-11-18T23:42:52.594Z,61.9
2022-11-18T23:45:40.856Z,60.8
2022-11-18T23:48:28.118Z,60.9
2022-11-18T23:51:18.520Z,59.7
2022-11-18T23:54:07.458Z,59.5
2022-11-18T23:56:54.930Z,59.4
2022-11-18T23:59:42.188Z,61.1
